Time;durP1;ratioP1;P1;durP2;ratioP2;P2;SDS_P1;SDS_P2;PMS_P1;PMS_P2;Temp;Humidity;BMP_temperature;BMP_pressure;BME280_temperature;BME280_humidity;BME280_pressure;Samples;Min_cycle;Max_cycle;Signal;HPM_P1;HPM_P2
2021/07/02 00:02:35;;;;;;;0.10;0.10;;;15.90;93.10;;;19.20;80.77;101608.59;5120011;27;96716;-75
2021/07/02 00:05:17;;;;;;;4.63;0.98;;;15.90;93.10;;;19.13;80.57;101602.91;5077930;27;96881;-75
2021/07/02 00:07:58;;;;;;;0.40;0.40;;;15.90;93.20;;;19.14;80.65;101602.59;5030921;27;96614;-75
2021/07/02 00:10:39;;;;;;;0.75;0.68;;;15.90;93.10;;;19.16;80.21;101608.50;5128867;27;97268;-75
2021/07/02 00:13:21;;;;;;;1.90;1.00;;;15.90;93.20;;;19.18;80.57;101608.16;5042032;27;96748;-75
2021/07/02 00:16:03;;;;;;;0.30;0.30;;;15.90;93.20;;;19.19;80.09;101609.72;5087518;27;96600;-75
2021/07/02 00:18:44;;;;;;;11.35;2.33;;;15.90;93.20;;;19.21;80.05;101602.03;5079717;27;96960;-75
2021/07/02 00:21:25;;;;;;;9.35;1.33;;;15.90;93.10;;;19.16;80.05;101600.34;5054846;27;96758;-75
2021/07/02 00:24:07;;;;;;;0.25;0.25;;;15.90;93.10;;;19.13;80.70;101602.91;5109616;27;96808;-75
2021/07/02 00:26:49;;;;;;;0.93;0.82;;;15.90;93.20;;;19.15;80.03;101603.38;5096559;27;96675;-75
2021/07/02 00:29:29;;;;;;;1.98;1.08;;;15.90;93.20;;;19.12;80.08;101604.03;5069280;27;96802;-75
2021/07/02 00:32:11;;;;;;;0.65;0.65;;;15.90;93.20;;;19.19;79.64;101596.97;5041803;27;96828;-75
2021/07/02 00:34:52;;;;;;;0.88;0.88;;;15.80;93.10;;;19.14;79.87;101599.88;5053745;27;96833;-75
2021/07/02 00:37:33;;;;;;;0.28;0.28;;;15.80;93.10;;;19.11;80.15;101594.31;5089632;27;97076;-75
2021/07/02 00:40:15;;;;;;;2.47;1.00;;;15.80;93.20;;;19.04;80.47;101588.63;5090666;27;96793;-75
2021/07/02 00:42:56;;;;;;;1.08;0.35;;;15.80;93.10;;;19.06;80.03;101594.53;5070547;27;96772;-75
2021/07/02 00:45:39;;;;;;;0.15;0.15;;;15.80;93.20;;;19.01;80.13;101592.03;5071404;27;96646;-75
2021/07/02 00:48:21;;;;;;;0.73;0.73;;;15.80;93.20;;;19.08;79.62;101592.25;5095705;27;96722;-75
2021/07/02 00:51:04;;;;;;;0.10;0.10;;;15.70;93.20;;;19.06;80.25;101599.97;5063335;27;96670;-75
2021/07/02 00:53:47;;;;;;;2.70;2.15;;;15.70;93.20;;;19.23;79.31;101607.97;5027356;27;97029;-75
2021/07/02 00:56:28;;;;;;;3.10;0.60;;;15.70;93.20;;;19.17;79.33;101590.25;5067995;27;96721;-75
2021/07/02 00:59:09;;;;;;;1.45;0.70;;;15.70;93.20;;;19.13;80.08;101594.75;5065173;27;97297;-75
2021/07/02 01:01:51;;;;;;;3.25;0.85;;;15.70;93.20;;;19.09;79.81;101589.22;5067000;27;97525;-75
2021/07/02 01:04:33;;;;;;;0.90;0.88;;;15.70;93.30;;;18.99;80.22;101589.63;5064684;27;96756;-75
2021/07/02 01:07:16;;;;;;;13.38;1.35;;;15.70;93.20;;;19.02;80.14;101583.53;5073244;27;96668;-75
2021/07/02 01:09:57;;;;;;;0.00;0.00;;;15.70;93.20;;;19.02;79.75;101577.31;5065435;27;96929;-75
2021/07/02 01:12:41;;;;;;;0.10;0.10;;;15.70;93.20;;;19.07;79.88;101586.06;5066508;27;97177;-75
2021/07/02 01:15:27;;;;;;;1.95;1.48;;;15.60;93.20;;;19.04;79.95;101577.78;5045074;27;96651;-75
2021/07/02 01:18:32;;;;;;;0.55;0.40;;;15.70;93.30;;;19.04;79.56;101575.84;5088408;27;96734;-75
2021/07/02 01:21:15;;;;;;;1.63;0.45;;;15.70;93.30;;;18.99;80.24;101586.94;5047388;27;96881;-76
2021/07/02 01:23:58;;;;;;;1.30;0.47;;;15.60;93.20;;;19.08;79.92;101582.22;5088534;27;96551;-75
2021/07/02 01:26:43;;;;;;;0.45;0.45;;;15.70;93.30;;;19.05;80.08;101582.84;5053593;27;96833;-76
2021/07/02 01:29:26;;;;;;;4.47;1.05;;;15.60;93.20;;;19.00;79.56;101583.06;5069780;27;96762;-75
2021/07/02 01:32:10;;;;;;;0.82;0.77;;;15.60;93.20;;;18.96;79.76;101575.97;5055221;27;97166;-75
2021/07/02 01:34:53;;;;;;;1.75;1.02;;;15.60;93.20;;;18.91;79.71;101581.59;5047178;27;97900;-75
2021/07/02 01:37:36;;;;;;;5.30;2.25;;;15.60;93.20;;;18.84;80.18;101578.63;5062234;27;97454;-75
2021/07/02 01:40:19;;;;;;;0.55;0.35;;;15.60;93.20;;;18.85;80.53;101577.50;5064937;27;97329;-75
2021/07/02 01:43:03;;;;;;;0.40;0.30;;;15.60;93.20;;;18.83;80.21;101582.47;5045321;27;96738;-76
2021/07/02 01:45:49;;;;;;;1.58;1.23;;;15.60;93.20;;;18.84;80.11;101577.84;5044288;27;96735;-75
2021/07/02 01:48:34;;;;;;;3.40;1.05;;;15.50;93.20;;;18.83;79.85;101578.97;5024986;27;97260;-75
2021/07/02 01:51:16;;;;;;;1.08;0.98;;;15.50;93.20;;;18.77;80.17;101575.69;5031186;27;96637;-76
2021/07/02 01:53:58;;;;;;;0.15;0.15;;;15.50;93.20;;;18.72;80.18;101575.91;5106740;27;96642;-76
2021/07/02 01:56:47;;;;;;;3.30;0.65;;;15.50;93.20;;;18.70;80.35;101569.19;5050882;27;97277;-75
2021/07/02 01:59:33;;;;;;;0.73;0.30;;;15.50;93.20;;;18.68;80.27;101566.84;5090982;27;96558;-75
2021/07/02 02:02:18;;;;;;;1.02;0.90;;;15.50;93.20;;;18.61;80.28;101572.00;5050568;27;96889;-75
2021/07/02 02:05:06;;;;;;;0.65;0.60;;;15.50;93.20;;;18.59;80.30;101574.25;5057286;27;97173;-75
2021/07/02 02:07:49;;;;;;;1.65;1.20;;;15.40;93.20;;;18.55;80.34;101569.84;5054975;27;97513;-76
2021/07/02 02:10:30;;;;;;;13.90;2.30;;;15.40;93.20;;;18.46;80.48;101566.41;5050031;27;96843;-75
2021/07/02 02:13:14;;;;;;;1.60;0.95;;;15.30;93.20;;;18.37;80.84;101562.97;5127759;27;96554;-75
2021/07/02 02:15:58;;;;;;;2.65;1.25;;;15.30;93.30;;;18.39;80.65;101564.25;5063939;27;97131;-75
2021/07/02 02:18:42;;;;;;;5.20;1.77;;;15.30;93.30;;;18.42;81.03;101562.78;5118915;27;96693;-76
2021/07/02 02:21:23;;;;;;;0.10;0.10;;;15.30;93.30;;;18.40;80.89;101565.84;5064808;27;97015;-75
2021/07/02 02:24:06;;;;;;;0.28;0.28;;;15.30;93.30;;;18.46;80.93;101569.13;5066811;27;97245;-75
2021/07/02 02:26:47;;;;;;;0.30;0.30;;;15.30;93.30;;;18.52;80.22;101570.53;5064145;27;96770;-75
2021/07/02 02:29:29;;;;;;;0.38;0.38;;;15.30;93.30;;;18.65;80.33;101569.41;5070862;27;96861;-75
2021/07/02 02:32:11;;;;;;;2.50;0.80;;;15.30;93.30;;;18.60;79.98;101569.63;5067902;27;96845;-75
2021/07/02 02:34:52;;;;;;;1.00;1.00;;;15.30;93.30;;;18.59;80.07;101562.63;5065161;27;96934;-75
2021/07/02 02:37:33;;;;;;;9.65;2.08;;;15.30;93.30;;;18.62;79.90;101568.19;5066816;27;97008;-76
2021/07/02 02:40:15;;;;;;;0.28;0.28;;;15.30;93.30;;;18.64;80.15;101565.13;5104252;27;96714;-75
2021/07/02 02:42:56;;;;;;;0.28;0.28;;;15.30;93.30;;;18.66;80.19;101560.16;5067332;27;96846;-75
2021/07/02 02:45:37;;;;;;;1.05;1.02;;;15.30;93.30;;;18.69;80.00;101568.44;5048111;27;96645;-75
2021/07/02 02:48:19;;;;;;;2.67;1.30;;;15.30;93.30;;;18.70;79.88;101561.88;5109975;27;96625;-75
2021/07/02 02:51:00;;;;;;;2.00;1.02;;;15.30;93.30;;;18.71;80.03;101562.66;4991852;28;96871;-75
2021/07/02 02:53:43;;;;;;;1.95;1.20;;;15.40;93.30;;;18.67;79.83;101559.81;5093559;27;96616;-75
2021/07/02 02:56:25;;;;;;;0.43;0.43;;;15.40;93.30;;;18.60;80.40;101562.28;5060589;27;96550;-75
2021/07/02 02:59:07;;;;;;;1.02;0.90;;;15.30;93.20;;;18.63;80.02;101564.34;5030298;27;96723;-75
2021/07/02 03:01:49;;;;;;;1.17;0.68;;;15.30;93.20;;;18.65;79.92;101570.22;5051016;27;99456;-75
2021/07/02 03:04:31;;;;;;;1.60;0.80;;;15.30;93.20;;;18.50;80.47;101570.06;5063740;27;96638;-75
2021/07/02 03:07:13;;;;;;;1.38;0.95;;;15.30;93.20;;;18.48;80.61;101572.31;5064964;27;97296;-76
2021/07/02 03:09:55;;;;;;;4.43;1.73;;;15.30;93.30;;;18.59;80.32;101573.47;5051679;27;96732;-75
2021/07/02 03:12:36;;;;;;;0.40;0.40;;;15.30;93.20;;;18.61;80.32;101577.44;5087227;27;96696;-75
2021/07/02 03:15:19;;;;;;;2.67;0.52;;;15.30;93.20;;;18.66;80.06;101582.66;5084416;27;96709;-75
2021/07/02 03:18:01;;;;;;;0.85;0.85;;;15.30;93.30;;;18.68;79.94;101583.13;5052860;27;96909;-75
2021/07/02 03:20:44;;;;;;;2.58;2.35;;;15.30;93.20;;;18.49;80.62;101585.53;5068547;27;97195;-75
2021/07/02 03:23:26;;;;;;;3.03;1.02;;;15.30;93.20;;;18.45;80.74;101590.06;5058572;27;96548;-75
2021/07/02 03:26:08;;;;;;;1.67;0.90;;;15.30;93.20;;;18.49;80.58;101585.53;5054220;27;96870;-75
2021/07/02 03:28:49;;;;;;;10.77;2.10;;;15.30;93.20;;;18.50;80.61;101587.13;5141946;27;97426;-75
2021/07/02 03:31:33;;;;;;;5.18;1.55;;;15.30;93.20;;;18.48;80.66;101589.38;5069071;27;96750;-75
2021/07/02 03:34:16;;;;;;;0.70;0.50;;;15.30;93.20;;;18.51;80.37;101588.72;5054203;27;97231;-75
2021/07/02 03:36:57;;;;;;;0.00;0.00;;;15.30;93.20;;;18.53;80.26;101586.44;5110718;27;96694;-75
2021/07/02 03:39:38;;;;;;;2.55;1.73;;;15.30;93.20;;;18.55;80.20;101592.34;5066680;27;96908;-75
2021/07/02 03:42:20;;;;;;;0.30;0.30;;;15.30;93.20;;;18.57;80.59;101595.50;5067701;27;96701;-75
2021/07/02 03:45:04;;;;;;;0.45;0.45;;;15.30;93.20;;;18.59;80.31;101600.63;5051228;27;96757;-75
2021/07/02 03:47:49;;;;;;;0.38;0.35;;;15.30;93.20;;;18.62;80.09;101599.94;5106879;27;97285;-75
2021/07/02 03:50:32;;;;;;;2.90;1.55;;;15.40;93.20;;;18.62;79.82;101600.75;5061977;27;97494;-75
2021/07/02 03:53:15;;;;;;;2.60;2.40;;;15.40;93.20;;;18.66;79.98;101598.16;5103244;27;96558;-75
2021/07/02 03:55:56;;;;;;;0.57;0.50;;;15.40;93.20;;;18.66;80.18;101604.38;5068012;27;97093;-75
2021/07/02 03:58:38;;;;;;;2.38;2.00;;;15.50;93.20;;;18.78;79.98;101603.63;5063708;27;96778;-75
2021/07/02 04:01:19;;;;;;;0.77;0.77;;;15.50;93.10;;;18.93;79.44;101603.78;5083314;27;97279;-75
2021/07/02 04:04:00;;;;;;;1.95;1.67;;;15.60;93.40;;;18.99;78.95;101605.94;5065332;27;96841;-75
2021/07/02 04:06:43;;;;;;;2.38;0.65;;;15.70;93.00;;;19.03;79.31;101612.28;5068231;27;96833;-75
2021/07/02 04:09:25;;;;;;;7.47;2.28;;;15.70;92.90;;;19.07;79.56;101601.53;5077306;27;96637;-75
2021/07/02 04:12:13;;;;;;;0.95;0.88;;;15.80;92.80;;;19.08;79.48;101603.94;5063448;27;96667;-75
2021/07/02 04:14:54;;;;;;;3.58;1.10;;;15.90;92.80;;;19.20;79.11;101595.00;5067339;27;96598;-75
2021/07/02 04:17:37;;;;;;;2.08;1.73;;;15.90;92.80;;;19.15;79.47;101603.38;5026152;28;97023;-75
2021/07/02 04:20:18;;;;;;;1.27;1.00;;;15.90;92.80;;;19.10;79.54;101609.03;5059146;27;96662;-75
2021/07/02 04:23:00;;;;;;;1.08;1.08;;;15.90;92.80;;;19.04;79.67;101610.38;5109070;27;96771;-75
2021/07/02 04:25:45;;;;;;;21.67;1.65;;;15.90;92.80;;;19.01;79.91;101608.34;5071106;27;96766;-75
2021/07/02 04:28:26;;;;;;;1.08;0.70;;;15.80;92.80;;;19.04;79.47;101610.38;5106172;27;97330;-75
2021/07/02 04:31:08;;;;;;;2.55;0.43;;;15.80;92.80;;;18.97;80.04;101608.19;5053780;27;97292;-75
2021/07/02 04:33:49;;;;;;;0.98;0.90;;;15.80;92.80;;;18.97;80.16;101615.56;5068483;27;96614;-75
2021/07/02 04:36:32;;;;;;;1.73;1.60;;;15.80;92.80;;;18.94;80.01;101610.81;5068329;27;96522;-75
2021/07/02 04:39:14;;;;;;;1.00;1.00;;;15.90;92.90;;;19.04;79.87;101613.88;5094082;27;96759;-75
2021/07/02 04:41:55;;;;;;;1.98;1.85;;;15.90;92.80;;;19.11;79.55;101624.19;5107877;27;96986;-75
2021/07/02 04:44:38;;;;;;;2.53;1.75;;;15.90;92.80;;;19.12;79.61;101623.88;5065474;27;96862;-75
2021/07/02 04:47:19;;;;;;;0.52;0.52;;;16.00;92.80;;;19.16;79.95;101621.28;5053875;27;96924;-75
2021/07/02 04:50:01;;;;;;;1.38;1.10;;;16.00;92.80;;;19.23;80.05;101618.81;5065573;27;96899;-76
2021/07/02 04:52:44;;;;;;;0.60;0.60;;;16.00;92.80;;;19.25;79.56;101622.00;5065702;27;96871;-75
2021/07/02 04:55:25;;;;;;;7.97;1.25;;;16.10;92.70;;;19.27;79.79;101617.00;5051445;27;96553;-75
2021/07/02 04:58:07;;;;;;;2.67;1.20;;;16.10;92.70;;;19.41;79.56;101622.91;5048570;27;96918;-76
2021/07/02 05:00:48;;;;;;;2.13;1.88;;;16.20;92.70;;;19.36;79.29;101631.28;5066859;27;97192;-75
2021/07/02 05:03:29;;;;;;;1.13;0.82;;;16.20;92.70;;;19.38;79.26;101637.19;5077538;27;100798;-75
2021/07/02 05:06:11;;;;;;;1.75;1.52;;;16.20;92.60;;;19.38;79.83;101627.09;5047507;27;97728;-76
2021/07/02 05:08:52;;;;;;;3.63;1.05;;;16.20;92.70;;;19.40;79.66;101626.75;5066477;27;97248;-76
2021/07/02 05:11:34;;;;;;;0.30;0.30;;;16.30;92.70;;;19.45;79.53;101619.19;5053362;27;97046;-76
2021/07/02 05:14:15;;;;;;;0.75;0.75;;;16.30;92.50;;;19.53;79.07;101614.78;5087351;27;96805;-76
2021/07/02 05:16:56;;;;;;;0.85;0.82;;;16.40;92.50;;;19.55;79.39;101624.16;5063400;27;96800;-76
2021/07/02 05:19:40;;;;;;;0.73;0.73;;;16.40;92.40;;;19.59;79.25;101625.06;5068775;27;96784;-76
2021/07/02 05:22:22;;;;;;;5.55;1.63;;;16.40;92.40;;;19.64;78.92;101626.78;5089243;27;96832;-76
2021/07/02 05:25:06;;;;;;;2.47;1.65;;;16.50;92.40;;;19.72;78.77;101628.56;5075914;27;96744;-76
2021/07/02 05:27:47;;;;;;;0.63;0.63;;;16.50;92.40;;;19.78;78.83;101627.19;5062812;27;96842;-76
2021/07/02 05:30:28;;;;;;;2.15;0.60;;;16.60;92.30;;;19.90;78.98;101627.22;5070199;27;96834;-75
2021/07/02 05:33:09;;;;;;;12.63;3.92;;;16.70;92.40;;;19.99;78.56;101636.03;5065096;27;96629;-76
2021/07/02 05:35:51;;;;;;;3.58;1.27;;;16.70;92.30;;;20.06;78.46;101633.53;5074214;27;97236;-76
2021/07/02 05:38:32;;;;;;;4.60;1.50;;;16.80;92.30;;;20.06;78.31;101623.47;5067490;27;96680;-76
2021/07/02 05:41:14;;;;;;;2.70;2.13;;;16.80;92.10;;;20.12;78.03;101626.75;5060292;27;96751;-76
2021/07/02 05:43:55;;;;;;;2.05;1.20;;;16.90;92.20;;;20.10;78.82;101626.28;5067694;27;97042;-76
2021/07/02 05:46:36;;;;;;;7.07;3.28;;;16.90;92.10;;;20.06;79.49;101631.63;5067111;27;96778;-76
2021/07/02 05:49:18;;;;;;;4.03;1.55;;;16.90;92.10;;;20.09;78.87;101632.84;5069266;27;96699;-76
2021/07/02 05:51:59;;;;;;;3.72;2.17;;;16.90;92.20;;;19.98;78.91;101637.16;5051618;27;96713;-76
2021/07/02 05:54:47;;;;;;;0.65;0.65;;;16.90;92.20;;;19.88;79.63;101634.91;5048867;27;96926;-77
2021/07/02 05:57:28;;;;;;;2.65;1.55;;;16.90;92.30;;;19.74;79.26;101638.00;5098932;27;96835;-76
2021/07/02 06:00:13;;;;;;;0.68;0.68;;;16.80;92.30;;;19.69;80.13;101640.13;5057861;27;96904;-76
2021/07/02 06:02:54;;;;;;;0.93;0.88;;;16.70;92.50;;;19.70;80.06;101645.25;5115155;27;96592;-76
2021/07/02 06:05:36;;;;;;;1.23;1.13;;;16.70;92.50;;;19.86;79.78;101637.97;5048713;27;96646;-76
2021/07/02 06:08:17;;;;;;;0.80;0.80;;;16.80;92.60;;;20.09;79.96;101649.19;5066242;27;98052;-76
2021/07/02 06:11:04;;;;;;;6.85;1.20;;;16.80;92.50;;;20.18;79.26;101642.47;5066314;27;96552;-76
2021/07/02 06:13:45;;;;;;;6.72;2.05;;;16.90;92.40;;;20.31;78.24;101638.59;5062330;27;96809;-76
2021/07/02 06:16:26;;;;;;;2.95;1.92;;;17.00;92.40;;;20.51;77.85;101637.63;5065977;27;96787;-76
2021/07/02 06:19:08;;;;;;;1.45;0.38;;;17.10;92.30;;;20.69;77.32;101642.41;5051406;27;97423;-76
2021/07/02 06:21:49;;;;;;;3.08;1.75;;;17.20;92.10;;;20.77;77.53;101636.06;5046803;27;97110;-76
2021/07/02 06:24:32;;;;;;;5.38;2.03;;;17.40;92.00;;;20.77;77.76;101641.50;5068786;27;97346;-76
2021/07/02 06:27:14;;;;;;;1.33;0.82;;;17.40;91.90;;;20.84;77.36;101638.19;5069196;27;97149;-76
2021/07/02 06:29:55;;;;;;;2.00;1.90;;;17.40;92.00;;;20.92;77.23;101638.03;5058033;27;96841;-76
2021/07/02 06:32:36;;;;;;;0.63;0.57;;;17.50;92.00;;;21.10;77.46;101639.31;5068905;27;96750;-76
2021/07/02 06:35:19;;;;;;;2.83;1.90;;;17.60;92.00;;;21.27;77.20;101641.69;5067156;27;96727;-76
2021/07/02 06:37:59;;;;;;;3.03;1.77;;;17.70;91.90;;;21.38;76.53;101645.50;5068810;27;96808;-76
2021/07/02 06:40:45;;;;;;;0.55;0.55;;;17.80;91.70;;;21.55;75.86;101653.28;5056429;27;96792;-76
2021/07/02 06:43:26;;;;;;;3.53;1.23;;;18.00;91.60;;;21.65;75.76;101652.81;5083617;27;96498;-76
2021/07/02 06:46:07;;;;;;;2.38;1.67;;;18.10;91.60;;;21.72;76.16;101650.25;5055602;27;96752;-76
2021/07/02 06:48:48;;;;;;;1.00;1.00;;;18.20;91.40;;;21.78;76.15;101646.09;5047041;27;96703;-76
2021/07/02 06:51:30;;;;;;;1.23;1.13;;;18.30;91.30;;;21.86;75.72;101653.28;5061285;27;97151;-76
2021/07/02 06:54:11;;;;;;;2.55;1.85;;;18.40;91.30;;;22.03;75.35;101652.13;5129940;27;96632;-76
2021/07/02 06:57:02;;;;;;;1.55;1.35;;;18.40;91.30;;;22.42;74.30;101657.31;5047265;27;96586;-76
2021/07/02 06:59:45;;;;;;;0.35;0.35;;;18.60;91.20;;;23.32;72.08;101652.84;5046250;27;96723;-76
2021/07/02 07:02:26;;;;;;;1.95;1.77;;;19.00;91.20;;;26.00;64.32;101629.84;5064158;27;97036;-76
2021/07/02 07:05:10;;;;;;;1.02;0.93;;;20.10;89.70;;;25.86;65.50;101640.78;5055608;27;96597;-76
2021/07/02 07:07:51;;;;;;;4.32;1.58;;;20.80;87.30;;;25.47;67.79;101638.88;5089783;27;96699;-76
2021/07/02 07:10:34;;;;;;;1.70;1.30;;;21.00;86.70;;;25.09;69.61;101640.06;5054696;27;96919;-76
2021/07/02 07:13:15;;;;;;;4.50;2.28;;;21.00;87.20;;;25.07;70.30;101636.91;5054343;27;96876;-76
2021/07/02 07:16:00;;;;;;;2.63;1.60;;;21.10;88.00;;;24.77;71.09;101636.22;5070116;27;96789;-76
2021/07/02 07:18:46;;;;;;;2.78;2.08;;;21.00;88.10;;;24.60;72.72;101644.22;5106944;27;96617;-76
2021/07/02 07:21:27;;;;;;;6.60;0.93;;;21.00;89.50;;;24.68;72.47;101645.88;5090767;27;97418;-77
2021/07/02 07:24:09;;;;;;;3.80;1.55;;;21.00;88.80;;;24.85;72.05;101654.31;5055272;27;96714;-76
2021/07/02 07:26:50;;;;;;;3.10;1.52;;;21.10;89.20;;;24.85;72.60;101650.78;5054826;27;96898;-76
2021/07/02 07:29:33;;;;;;;1.13;1.02;;;21.20;89.10;;;25.16;71.24;101653.06;5100446;27;96973;-76
2021/07/02 07:32:15;;;;;;;2.22;1.35;;;21.30;88.90;;;25.29;70.83;101657.13;5038655;27;96835;-76
2021/07/02 07:34:58;;;;;;;2.10;1.52;;;21.50;87.90;;;25.52;70.00;101650.31;5092109;27;96890;-76
2021/07/02 07:37:39;;;;;;;0.75;0.52;;;21.50;87.60;;;26.37;67.51;101652.41;5066198;27;96755;-76
2021/07/02 07:40:21;;;;;;;1.90;1.40;;;21.80;87.10;;;26.99;65.62;101653.84;5053646;27;96597;-76
2021/07/02 07:43:05;;;;;;;3.08;1.55;;;22.10;86.20;;;27.38;65.03;101661.81;5069543;27;97144;-76
2021/07/02 07:45:46;;;;;;;3.65;0.88;;;22.40;85.70;;;27.68;64.79;101666.91;5054581;27;97726;-76
2021/07/02 07:48:28;;;;;;;0.15;0.15;;;22.90;84.90;;;28.05;64.54;101662.56;5054691;27;96936;-76
2021/07/02 07:51:19;;;;;;;0.93;0.57;;;23.10;84.70;;;28.87;62.35;101661.06;5056097;27;96836;-76
2021/07/02 07:54:01;;;;;;;0.93;0.63;;;23.60;83.60;;;35.76;44.88;101633.00;5065472;27;96684;-76
2021/07/02 07:56:50;;;;;;;1.85;0.75;;;25.60;79.30;;;38.63;39.78;101637.50;5050407;27;97427;-76
2021/07/02 07:59:35;;;;;;;1.50;1.13;;;27.80;73.80;;;40.20;37.89;101629.50;5086393;27;97305;-76
2021/07/02 08:02:16;;;;;;;35.17;2.13;;;29.40;70.80;;;37.58;45.17;101635.09;5089654;27;96831;-76
2021/07/02 08:04:57;;;;;;;3.45;1.48;;;29.90;70.20;;;40.81;38.51;101633.34;5051030;27;96800;-76
2021/07/02 08:07:40;;;;;;;1.40;1.23;;;30.60;69.60;;;39.89;42.00;101639.59;5041862;27;96881;-77
2021/07/02 08:10:26;;;;;;;2.13;1.42;;;31.20;69.50;;;37.95;47.73;101637.44;5059069;27;96827;-75
2021/07/02 08:13:08;;;;;;;4.65;1.33;;;31.30;69.50;;;35.98;52.64;101632.59;5050088;27;96762;-76
2021/07/02 08:15:50;;;;;;;8.43;2.05;;;30.90;72.00;;;34.43;57.35;101631.72;5034491;27;97404;-77
2021/07/02 08:18:47;;;;;;;2.47;1.42;;;30.40;72.80;;;32.96;61.33;101637.53;5052231;27;97504;-75
2021/07/02 08:21:29;;;;;;;2.67;1.75;;;29.60;74.70;;;32.58;61.84;101645.50;5071597;27;96877;-76
2021/07/02 08:24:10;;;;;;;3.78;1.40;;;29.10;77.10;;;32.16;62.63;101645.59;5045645;27;96746;-76
2021/07/02 08:26:56;;;;;;;3.85;1.88;;;28.60;77.20;;;31.46;64.52;101643.28;5045566;27;96818;-76
2021/07/02 08:29:38;;;;;;;2.30;1.50;;;28.10;78.30;;;31.17;65.28;101633.88;5064009;27;97149;-75
2021/07/02 08:32:19;;;;;;;12.95;3.72;;;27.70;79.50;;;30.87;65.54;101647.75;5110186;27;96646;-75
2021/07/02 08:35:00;;;;;;;1.27;1.08;;;27.50;80.20;;;30.91;65.39;101637.38;5089598;27;96962;-79
2021/07/02 08:37:45;;;;;;;1.42;1.33;;;27.30;80.30;;;32.19;61.08;101650.31;5117957;27;96753;-78
2021/07/02 08:40:27;;;;;;;6.53;1.15;;;27.30;80.00;;;33.42;57.12;101648.38;5071594;27;96869;-79
2021/07/02 08:43:08;;;;;;;1.33;1.23;;;27.60;79.60;;;34.82;54.08;101639.69;5123455;27;97422;-78
2021/07/02 08:45:50;;;;;;;1.02;0.98;;;28.00;79.60;;;37.52;47.09;101637.72;5036812;27;97745;-75
2021/07/02 08:48:34;;;;;;;7.60;1.25;;;28.70;78.00;;;40.66;41.03;101635.41;5064674;27;97127;-76
2021/07/02 08:51:17;;;;;;;2.03;1.60;;;29.70;76.40;;;37.88;49.08;101644.16;5068318;27;97665;-75
2021/07/02 08:53:59;;;;;;;5.15;1.77;;;30.40;74.90;;;35.17;55.86;101642.16;5050493;27;96833;-75
2021/07/02 08:56:56;;;;;;;3.47;1.50;;;30.30;75.30;;;33.60;59.70;101637.56;5046961;27;97460;-74
2021/07/02 08:59:37;;;;;;;1.50;1.38;;;29.80;75.70;;;32.88;61.02;101636.94;5064002;27;96769;-76
2021/07/02 09:02:30;;;;;;;3.30;2.15;;;29.20;76.60;;;32.46;61.84;101643.38;5050053;27;96736;-75
2021/07/02 09:05:33;;;;;;;0.82;0.82;;;28.70;77.20;;;31.93;62.84;101642.84;5038303;27;96847;-75
2021/07/02 09:08:17;;;;;;;3.03;1.45;;;28.30;77.90;;;31.34;64.51;101643.84;5065868;27;97490;-75
2021/07/02 09:10:58;;;;;;;0.38;0.38;;;28.00;78.80;;;31.01;65.10;101648.31;5048158;27;97222;-74
2021/07/02 09:13:44;;;;;;;1.05;0.73;;;27.60;79.60;;;30.61;65.79;101648.50;5102368;27;96930;-75
2021/07/02 09:16:36;;;;;;;3.60;1.63;;;27.20;79.50;;;29.72;67.40;101654.56;5041605;27;97392;-75
2021/07/02 09:19:23;;;;;;;1.42;1.23;;;26.80;79.50;;;29.21;68.87;101640.78;5124478;27;96711;-75
2021/07/02 09:22:19;;;;;;;2.53;1.33;;;26.30;80.90;;;29.10;69.20;101651.09;5048972;27;96726;-76
2021/07/02 09:25:00;;;;;;;5.70;1.67;;;26.00;82.50;;;29.15;68.58;101651.47;5066025;27;97058;-74
2021/07/02 09:27:44;;;;;;;2.30;1.35;;;25.80;82.50;;;28.99;68.96;101657.91;5055726;27;96768;-76
2021/07/02 09:30:28;;;;;;;2.35;1.63;;;25.60;83.40;;;28.77;69.58;101659.94;5060370;27;97041;-75
2021/07/02 09:33:15;;;;;;;1.02;0.82;;;25.40;84.10;;;28.56;69.69;101664.78;5077877;27;96780;-76
2021/07/02 09:35:59;;;;;;;2.75;1.27;;;25.20;84.00;;;28.20;70.52;101671.59;5050781;27;96696;-75
2021/07/02 09:38:48;;;;;;;11.65;2.15;;;25.00;83.60;;;28.05;70.51;101670.03;5125301;27;97091;-75
2021/07/02 09:41:35;;;;;;;2.72;1.25;;;24.80;84.20;;;27.97;70.43;101666.53;5043501;27;96697;-74
2021/07/02 09:44:15;;;;;;;0.65;0.65;;;24.70;84.70;;;27.79;70.78;101674.00;5067866;27;97096;-74
2021/07/02 09:46:57;;;;;;;9.90;1.35;;;24.60;84.90;;;27.57;71.26;101675.16;5062769;27;97180;-75
2021/07/02 09:49:27;;;;;;;3.20;1.33;;;24.40;85.10;;;27.48;71.58;101669.28;5034999;27;97400;-75
2021/07/02 09:52:08;;;;;;;1.05;0.82;;;24.20;85.50;;;27.66;70.95;101680.28;5044201;27;97893;-74
2021/07/02 09:54:37;;;;;;;1.77;0.88;;;24.20;85.50;;;27.88;70.24;101679.91;5042707;27;98850;-74
2021/07/02 09:57:19;;;;;;;0.75;0.73;;;24.20;86.20;;;28.24;69.61;101684.19;5032944;27;97071;-75
2021/07/02 10:00:11;;;;;;;1.20;0.90;;;24.30;86.10;;;28.34;68.91;101677.88;5042856;27;97152;-74
2021/07/02 10:02:57;;;;;;;1.27;0.82;;;24.30;85.50;;;28.45;68.60;101683.34;5042980;27;98264;-75
2021/07/02 10:05:27;;;;;;;;;;;24.50;85.60;;;28.40;68.65;101679.03;5043314;27;97872;-75
2021/07/02 10:08:05;;;;;;;2.13;1.45;;;24.50;84.80;;;28.18;69.30;101688.50;5043380;27;97231;-75
2021/07/02 10:10:34;;;;;;;1.23;1.13;;;24.50;84.90;;;28.04;69.47;101683.03;5047807;27;97268;-75
2021/07/02 10:13:07;;;;;;;3.47;2.13;;;24.40;85.30;;;27.68;69.77;101697.19;5044481;27;97847;-75
2021/07/02 10:15:36;;;;;;;4.38;1.48;;;24.20;84.20;;;27.31;70.64;101691.28;5041851;27;97205;-76
2021/07/02 10:18:13;;;;;;;1.02;1.02;;;24.00;84.70;;;27.03;71.72;101693.94;5042343;27;96995;-75
2021/07/02 10:20:44;;;;;;;1.67;1.02;;;23.80;85.80;;;26.92;71.79;101706.91;5059130;27;96845;-76
2021/07/02 10:23:22;;;;;;;1.00;0.90;;;23.70;86.20;;;26.81;72.04;101711.56;5045313;27;96857;-74
2021/07/02 10:25:55;;;;;;;2.47;1.42;;;23.50;86.60;;;26.86;72.02;101713.94;5059786;27;97794;-75
2021/07/02 10:28:26;;;;;;;3.27;0.67;;;23.50;86.80;;;26.95;71.39;101710.81;5042533;27;97332;-74
2021/07/02 10:30:55;;;;;;;3.38;1.55;;;23.50;86.90;;;27.44;70.42;101704.28;5042024;27;97533;-74
2021/07/02 10:33:29;;;;;;;1.00;0.95;;;23.50;87.40;;;28.02;69.06;101712.16;5021102;27;98442;-74
2021/07/02 10:36:03;;;;;;;1.65;1.55;;;23.70;87.40;;;28.44;68.09;101712.13;5048885;27;97634;-74
2021/07/02 10:38:37;;;;;;;1.25;1.15;;;24.00;87.10;;;29.02;66.64;101704.78;5022740;27;96876;-73
2021/07/02 10:41:12;;;;;;;2.65;1.58;;;24.30;86.50;;;29.24;65.61;101703.47;5012624;27;97336;-74
2021/07/02 10:44:06;;;;;;;4.20;1.75;;;24.60;85.20;;;29.13;66.42;101711.03;5050553;27;97837;-74
2021/07/02 10:46:37;;;;;;;5.97;1.35;;;24.80;84.40;;;28.97;66.80;101707.97;5018298;27;96849;-74
2021/07/02 10:49:11;;;;;;;3.22;0.85;;;24.80;84.20;;;28.87;67.06;101706.03;5018196;27;97446;-73
2021/07/02 10:51:54;;;;;;;;;;;24.70;84.40;;;28.76;67.66;101710.03;5018574;27;98360;-74
2021/07/02 10:54:35;;;;;;;1.05;1.00;;;24.70;84.40;;;28.75;68.01;101711.97;5017623;28;97319;-74
2021/07/02 10:57:20;;;;;;;1.60;1.48;;;24.70;84.80;;;28.66;68.04;101708.88;5028047;27;97891;-73
2021/07/02 11:00:12;;;;;;;5.00;1.20;;;24.70;84.70;;;28.55;68.36;101716.41;5008205;28;96959;-74
2021/07/02 11:02:43;;;;;;;1.77;0.95;;;24.70;84.50;;;28.57;68.50;101713.25;5005145;28;97812;-73
2021/07/02 11:05:36;;;;;;;4.38;1.35;;;24.60;85.10;;;28.68;68.59;101717.53;5005450;28;99854;-73
2021/07/02 11:08:06;;;;;;;1.08;0.55;;;24.70;85.20;;;28.66;68.70;101713.59;5019588;28;97777;-73
2021/07/02 11:10:58;;;;;;;1.33;1.02;;;24.70;85.20;;;28.53;68.89;101724.31;5011286;28;96819;-73
2021/07/02 11:13:27;;;;;;;1.25;0.95;;;24.60;85.00;;;28.37;69.77;101718.44;5007265;28;97537;-74
2021/07/02 11:16:09;;;;;;;0.45;0.45;;;24.60;85.80;;;28.56;69.27;101726.25;5008854;28;98022;-73